Time;durP1;ratioP1;P1;durP2;ratioP2;P2;SDS_P1;SDS_P2;PMS_P1;PMS_P2;Temp;Humidity;BMP_temperature;BMP_pressure;BME280_temperature;BME280_humidity;BME280_pressure;Samples;Min_cycle;Max_cycle;Signal;HPM_P1;HPM_P2
2022/02/19 03:45:20;;;;;;;2.30;0.47;;;10.30;74.10;;;;;;5737200;24;20831;31
2022/02/19 03:47:56;;;;;;;4.60;0.93;;;10.20;73.90;;;;;;4717026;30;20082;-81
2022/02/19 03:50:22;;;;;;;3.40;0.75;;;10.20;73.60;;;;;;4741196;30;20049;-81
2022/02/19 03:52:48;;;;;;;2.53;0.70;;;10.20;73.80;;;;;;4737767;30;20056;-81
2022/02/19 03:55:26;;;;;;;1.92;0.50;;;10.20;73.40;;;;;;4745240;30;20039;-81
2022/02/19 03:57:56;;;;;;;3.08;0.80;;;10.20;72.90;;;;;;4728219;30;20049;-81
2022/02/19 04:00:22;;;;;;;2.85;0.90;;;10.20;72.40;;;;;;4739802;30;20108;-81
2022/02/19 04:02:49;;;;;;;3.55;0.70;;;10.20;71.80;;;;;;4722620;30;20033;-81
2022/02/19 04:05:21;;;;;;;11.10;1.10;;;10.10;71.80;;;;;;4740931;30;20037;-81
2022/02/19 04:07:48;;;;;;;4.70;0.68;;;10.10;72.10;;;;;;4711162;30;20194;-81
2022/02/19 04:10:23;;;;;;;2.78;0.85;;;10.10;71.60;;;;;;4722834;30;20067;-81
2022/02/19 04:12:49;;;;;;;7.83;1.03;;;10.10;71.30;;;;;;4752550;30;20037;-81
2022/02/19 04:15:28;;;;;;;2.30;0.63;;;10.10;70.80;;;;;;4745526;30;20322;-80
2022/02/19 04:17:54;;;;;;;3.05;0.70;;;10.10;70.30;;;;;;4743905;30;20032;-81
2022/02/19 04:20:21;;;;;;;;;;;10.10;70.50;;;;;;4725106;30;20049;-80
2022/02/19 04:22:47;;;;;;;3.75;0.57;;;10.10;69.90;;;;;;4731910;30;19942;-81
2022/02/19 04:25:12;;;;;;;4.10;0.82;;;10.10;69.40;;;;;;4744382;30;20033;-81
2022/02/19 04:27:40;;;;;;;1.73;0.40;;;10.00;69.20;;;;;;4753799;30;20037;-80
2022/02/19 04:30:07;;;;;;;7.30;0.70;;;10.10;68.50;;;;;;4724661;30;20041;-81
2022/02/19 04:32:37;;;;;;;3.53;0.68;;;10.10;68.80;;;;;;4740842;30;20044;-81
2022/02/19 04:35:06;;;;;;;4.07;0.70;;;10.10;68.50;;;;;;4725206;30;20335;-81
2022/02/19 04:37:37;;;;;;;6.38;0.50;;;10.10;68.30;;;;;;4741004;30;20032;-81
2022/02/19 04:40:05;;;;;;;4.50;0.40;;;10.10;67.20;;;;;;4759274;30;20042;-80
2022/02/19 04:42:34;;;;;;;4.68;0.77;;;10.10;66.50;;;;;;4728640;30;20048;-80
2022/02/19 04:45:11;;;;;;;2.30;0.50;;;10.20;66.10;;;;;;4738589;30;20039;-81
2022/02/19 04:47:44;;;;;;;3.00;0.52;;;10.20;66.00;;;;;;4712661;30;20064;-81
2022/02/19 04:50:12;;;;;;;4.70;0.90;;;10.20;65.80;;;;;;4724460;30;20237;-81
2022/02/19 04:52:39;;;;;;;4.35;0.75;;;10.20;65.00;;;;;;4736330;30;20076;-80
2022/02/19 04:55:06;;;;;;;3.22;0.57;;;10.20;64.90;;;;;;4710385;30;20029;-80
2022/02/19 04:57:32;;;;;;;2.97;0.60;;;10.20;64.00;;;;;;4708763;30;20104;-80
2022/02/19 05:00:03;;;;;;;1.70;0.50;;;10.20;63.90;;;;;;4722147;30;20090;-80
2022/02/19 05:02:47;;;;;;;10.10;1.48;;;10.30;63.70;;;;;;4699267;30;20068;-80
2022/02/19 05:05:13;;;;;;;2.10;0.60;;;10.30;62.90;;;;;;4711376;30;20051;-80
2022/02/19 05:07:40;;;;;;;7.47;0.80;;;10.30;63.60;;;;;;4711924;30;20044;-79
2022/02/19 05:10:08;;;;;;;2.95;0.90;;;10.30;62.50;;;;;;4725945;30;20033;-80
2022/02/19 05:12:41;;;;;;;11.25;0.65;;;10.30;62.40;;;;;;4711663;30;20095;-80
2022/02/19 05:15:12;;;;;;;6.05;0.80;;;10.30;62.30;;;;;;4703490;30;20034;-80
2022/02/19 05:17:50;;;;;;;2.85;0.70;;;10.40;62.20;;;;;;4725923;30;20047;-80
2022/02/19 05:20:23;;;;;;;2.75;0.70;;;10.30;61.80;;;;;;4726056;30;20036;-80
2022/02/19 05:22:51;;;;;;;3.85;0.80;;;10.30;61.70;;;;;;4725051;30;20033;-80
2022/02/19 05:25:23;;;;;;;2.58;0.90;;;10.30;62.50;;;;;;4721585;30;20029;-80
2022/02/19 05:27:50;;;;;;;8.40;1.13;;;10.30;62.10;;;;;;4739795;30;20112;-80
2022/02/19 05:30:16;;;;;;;2.42;0.63;;;10.30;62.20;;;;;;4711334;30;20048;-80
2022/02/19 05:33:03;;;;;;;7.63;1.20;;;10.30;62.10;;;;;;4708621;30;20045;-80
2022/02/19 05:35:33;;;;;;;3.00;0.80;;;10.30;61.90;;;;;;4711648;30;20037;-80
2022/02/19 05:38:00;;;;;;;2.55;0.68;;;10.30;62.10;;;;;;4697049;30;20048;-80
2022/02/19 05:40:28;;;;;;;4.22;0.93;;;10.30;62.60;;;;;;4722177;30;20237;-80
2022/02/19 05:42:55;;;;;;;2.45;0.80;;;10.30;62.30;;;;;;4711336;30;20036;-80
2022/02/19 05:45:25;;;;;;;3.10;0.57;;;10.30;62.40;;;;;;4704845;30;20045;-80
2022/02/19 05:47:53;;;;;;;3.20;1.05;;;10.30;62.00;;;;;;4716253;30;20072;-80
2022/02/19 05:50:29;;;;;;;4.57;0.70;;;10.30;62.00;;;;;;4723033;30;20349;-81
2022/02/19 05:53:01;;;;;;;4.95;1.30;;;10.30;62.50;;;;;;4732589;30;20061;-80
2022/02/19 05:55:41;;;;;;;3.35;0.80;;;10.30;62.20;;;;;;4718955;30;20049;-79
2022/02/19 05:58:11;;;;;;;5.68;1.38;;;10.30;61.90;;;;;;4729312;30;20291;-80
2022/02/19 06:00:40;;;;;;;8.00;0.90;;;10.30;62.00;;;;;;4725062;30;20064;-80
2022/02/19 06:03:06;;;;;;;2.67;0.75;;;10.30;62.00;;;;;;4710078;30;20045;-81
2022/02/19 06:05:32;;;;;;;2.20;0.70;;;10.30;62.10;;;;;;4720368;30;20048;-80
2022/02/19 06:07:58;;;;;;;4.93;1.15;;;10.30;62.00;;;;;;4723167;30;20037;-80
2022/02/19 06:10:26;;;;;;;3.95;1.15;;;10.30;61.60;;;;;;4728663;30;20125;-80
2022/02/19 06:12:52;;;;;;;3.97;1.02;;;10.30;61.50;;;;;;4719614;30;20753;-80
2022/02/19 06:15:23;;;;;;;2.00;0.88;;;10.30;61.90;;;;;;4708693;30;20068;-80
2022/02/19 06:18:09;;;;;;;7.20;0.80;;;10.30;61.90;;;;;;4736114;30;20048;-80
2022/02/19 06:20:36;;;;;;;3.47;0.82;;;10.40;61.90;;;;;;4709920;30;20044;-80
2022/02/19 06:23:08;;;;;;;4.40;1.10;;;10.40;61.60;;;;;;4707910;30;20075;-80
2022/02/19 06:25:35;;;;;;;3.00;1.00;;;10.40;61.70;;;;;;4710983;30;20068;-80
2022/02/19 06:28:03;;;;;;;4.07;0.90;;;10.40;61.30;;;;;;4711285;30;20084;-80
2022/02/19 06:30:29;;;;;;;7.15;1.10;;;10.40;61.60;;;;;;4710238;30;20041;-81
2022/02/19 06:33:01;;;;;;;3.75;1.25;;;10.50;61.40;;;;;;4711916;30;20073;-80
2022/02/19 06:35:30;;;;;;;4.30;1.00;;;10.50;61.30;;;;;;4705456;30;20053;-80
2022/02/19 06:38:07;;;;;;;4.25;0.85;;;10.40;61.00;;;;;;4725669;30;20040;-80
2022/02/19 06:40:34;;;;;;;1.45;0.68;;;10.40;61.20;;;;;;4723543;30;20064;-81
2022/02/19 06:42:59;;;;;;;5.20;1.08;;;10.50;60.90;;;;;;4740059;30;20052;-80
2022/02/19 06:45:28;;;;;;;12.80;1.15;;;10.50;61.00;;;;;;4738893;30;20210;-81
2022/02/19 06:47:55;;;;;;;7.22;1.20;;;10.50;60.90;;;;;;4735631;30;20045;-80
2022/02/19 06:50:24;;;;;;;3.50;1.00;;;10.50;60.80;;;;;;4738587;30;20048;-80
2022/02/19 06:52:52;;;;;;;2.10;0.73;;;10.50;60.60;;;;;;4717813;30;20037;-80
2022/02/19 06:55:20;;;;;;;6.13;1.08;;;10.50;60.60;;;;;;4752968;30;20798;-80
2022/02/19 06:57:48;;;;;;;4.73;1.07;;;10.50;60.30;;;;;;4718727;30;20407;-80
2022/02/19 07:00:16;;;;;;;6.10;1.25;;;10.50;60.00;;;;;;4719414;30;20290;-80
2022/02/19 07:02:47;;;;;;;5.25;0.95;;;10.50;60.40;;;;;;4722236;30;20121;-80
2022/02/19 07:05:14;;;;;;;;;;;10.50;60.90;;;;;;4722579;30;20056;-80
2022/02/19 07:07:58;;;;;;;4.93;1.60;;;10.50;61.00;;;;;;4722003;30;20160;-80
2022/02/19 07:10:25;;;;;;;5.80;1.02;;;10.50;60.90;;;;;;4704474;30;20072;-81
2022/02/19 07:12:51;;;;;;;5.10;0.98;;;10.40;60.90;;;;;;4704912;30;20071;-81
2022/02/19 07:15:20;;;;;;;13.57;1.77;;;10.40;60.90;;;;;;4722520;30;20036;-81
2022/02/19 07:18:01;;;;;;;4.50;1.40;;;10.40;61.30;;;;;;4724904;30;20035;-81
2022/02/19 07:20:34;;;;;;;6.03;1.13;;;10.50;61.20;;;;;;4707646;30;20043;-81
2022/02/19 07:23:00;;;;;;;4.38;1.27;;;10.40;61.10;;;;;;4732218;30;20375;-81
2022/02/19 07:25:26;;;;;;;6.22;1.45;;;10.40;61.20;;;;;;4717773;30;20443;-81
2022/02/19 07:27:53;;;;;;;2.67;0.82;;;10.40;61.30;;;;;;4701605;30;20126;-81
2022/02/19 07:30:20;;;;;;;6.13;1.27;;;10.40;61.10;;;;;;4736553;30;20061;-81
2022/02/19 07:32:48;;;;;;;;;;;10.40;61.40;;;;;;4715763;30;20309;-81
2022/02/19 07:35:34;;;;;;;7.05;1.05;;;10.40;62.10;;;;;;4746768;30;19915;-81
2022/02/19 07:38:00;;;;;;;4.82;1.15;;;10.30;61.80;;;;;;4718220;30;20041;-81
2022/02/19 07:40:26;;;;;;;5.00;1.25;;;10.40;62.40;;;;;;4720114;30;20237;-81
2022/02/19 07:42:52;;;;;;;3.58;1.05;;;10.40;62.60;;;;;;4720354;30;20045;-81
2022/02/19 07:45:42;;;;;;;8.98;1.30;;;10.40;62.20;;;;;;4757059;30;20052;-81
2022/02/19 07:48:33;;;;;;;3.47;0.85;;;10.40;62.50;;;;;;4739782;30;20075;-81
2022/02/19 08:00:23;;;;;;;5.68;1.42;;;10.50;62.60;;;;;;4664968;30;20049;-81
2022/02/19 08:02:54;;;;;;;5.03;1.10;;;10.60;61.90;;;;;;4692205;30;20054;-81
2022/02/19 08:05:21;;;;;;;6.38;0.95;;;10.70;61.40;;;;;;4679250;30;20042;-81
2022/02/19 08:07:50;;;;;;;3.88;1.00;;;10.70;61.20;;;;;;4664870;30;20042;-81
2022/02/19 08:10:17;;;;;;;4.45;1.00;;;10.70;61.30;;;;;;4651188;30;20430;-80
2022/02/19 08:12:43;;;;;;;4.38;1.15;;;10.80;60.80;;;;;;4635680;30;20054;-81
2022/02/19 08:15:09;;;;;;;5.38;1.02;;;10.70;60.70;;;;;;4664390;30;20136;-80
2022/02/19 08:17:35;;;;;;;7.80;1.35;;;10.80;60.90;;;;;;4679724;30;20044;-80
2022/02/19 08:20:01;;;;;;;2.95;1.13;;;10.90;60.70;;;;;;4666724;30;20089;-80
2022/02/19 08:22:26;;;;;;;6.18;1.15;;;11.10;60.20;;;;;;4630805;30;20086;-80
2022/02/19 08:24:52;;;;;;;4.22;1.17;;;11.10;59.80;;;;;;4638571;30;20158;-80
2022/02/19 08:27:18;;;;;;;5.13;1.27;;;11.20;59.50;;;;;;4650758;30;20049;-80
2022/02/19 08:29:44;;;;;;;4.07;1.00;;;11.30;58.80;;;;;;4667048;30;20133;-81
2022/02/19 08:32:10;;;;;;;11.82;1.40;;;11.30;58.60;;;;;;4652267;30;20341;-80
2022/02/19 08:34:36;;;;;;;5.93;1.27;;;11.30;58.60;;;;;;4692099;30;20159;-80
2022/02/19 08:37:01;;;;;;;5.55;1.38;;;11.40;58.20;;;;;;4697009;30;20037;-81
2022/02/19 08:39:27;;;;;;;10.77;1.63;;;11.40;58.40;;;;;;4735322;30;20196;-80
2022/02/19 08:41:53;;;;;;;4.13;1.80;;;11.40;57.70;;;;;;4712030;30;20032;-80
2022/02/19 08:44:19;;;;;;;5.60;1.77;;;11.60;58.40;;;;;;4708240;30;20044;-81
2022/02/19 08:46:45;;;;;;;5.20;1.35;;;11.60;57.80;;;;;;4719928;30;20133;-80
2022/02/19 08:49:10;;;;;;;8.10;1.23;;;11.80;58.00;;;;;;4732807;30;20037;-80
2022/02/19 08:51:36;;;;;;;4.90;1.10;;;11.90;57.00;;;;;;4739284;30;20099;-80
2022/02/19 08:54:02;;;;;;;9.02;1.13;;;11.90;56.60;;;;;;4740442;30;20049;-81
2022/02/19 08:56:28;;;;;;;6.18;0.95;;;11.90;55.30;;;;;;4738029;30;20045;-80
2022/02/19 08:58:54;;;;;;;4.68;1.00;;;11.90;55.80;;;;;;4737254;30;20045;-80
2022/02/19 09:01:19;;;;;;;5.95;1.60;;;11.90;55.20;;;;;;4711562;30;20033;-80
2022/02/19 09:03:45;;;;;;;6.20;1.40;;;11.90;55.10;;;;;;4738931;30;20037;-80
2022/02/19 09:06:11;;;;;;;5.72;1.80;;;12.00;53.90;;;;;;4731735;30;20041;-80
2022/02/19 09:08:37;;;;;;;5.70;1.25;;;12.00;52.80;;;;;;4691456;30;20055;-80
2022/02/19 09:11:03;;;;;;;3.60;1.48;;;11.90;52.60;;;;;;4725414;30;20044;-80
2022/02/19 09:13:28;;;;;;;7.07;1.40;;;12.00;53.20;;;;;;4711272;30;20044;-81
2022/02/19 09:15:55;;;;;;;4.55;0.95;;;12.00;53.20;;;;;;4724646;30;20037;-80
2022/02/19 09:18:21;;;;;;;9.05;2.13;;;12.10;52.70;;;;;;4737172;30;20030;-81
2022/02/19 09:20:47;;;;;;;4.40;1.30;;;12.10;52.40;;;;;;4722486;30;20085;-80
2022/02/19 09:23:13;;;;;;;11.17;1.37;;;12.00;51.50;;;;;;4740183;30;20064;-80
2022/02/19 09:25:39;;;;;;;4.45;1.15;;;11.90;51.70;;;;;;4740018;30;20283;-81
2022/02/19 09:28:04;;;;;;;2.92;1.40;;;11.90;51.00;;;;;;4711095;30;20072;-82
2022/02/19 09:30:30;;;;;;;4.72;1.30;;;12.00;52.00;;;;;;4725432;30;20571;-82
2022/02/19 09:32:59;;;;;;;4.95;1.05;;;12.00;51.60;;;;;;4728490;30;20036;-81
2022/02/19 09:35:26;;;;;;;6.95;1.40;;;12.10;51.40;;;;;;4722845;30;20033;-81
2022/02/19 09:37:52;;;;;;;3.33;1.30;;;12.20;50.90;;;;;;4731428;30;20065;-79
2022/02/19 09:40:18;;;;;;;4.30;1.00;;;12.20;51.50;;;;;;4739545;30;20284;-80
2022/02/19 09:42:44;;;;;;;9.07;1.48;;;12.30;51.50;;;;;;4740187;30;20036;-81
2022/02/19 09:45:10;;;;;;;4.88;1.27;;;12.40;51.40;;;;;;4739350;30;20037;-80
2022/02/19 09:47:37;;;;;;;4.32;1.15;;;12.30;51.40;;;;;;4732596;30;20065;-80
2022/02/19 09:50:04;;;;;;;3.90;1.05;;;12.30;51.00;;;;;;4724474;30;20041;-81
2022/02/19 09:52:30;;;;;;;4.53;1.15;;;12.30;51.20;;;;;;4706507;30;20087;-80
2022/02/19 09:54:58;;;;;;;5.97;1.60;;;12.40;51.20;;;;;;4739607;30;20036;-80
2022/02/19 09:57:24;;;;;;;5.72;1.60;;;12.30;50.80;;;;;;4715421;30;20329;-79
2022/02/19 09:59:50;;;;;;;4.80;1.23;;;12.30;50.10;;;;;;4710528;30;20039;-81
2022/02/19 10:02:16;;;;;;;4.47;1.33;;;12.30;50.50;;;;;;4709653;30;20044;-81
2022/02/19 10:04:47;;;;;;;6.45;1.40;;;12.30;50.40;;;;;;4721737;30;20042;-79
2022/02/19 10:07:17;;;;;;;6.43;1.40;;;12.30;49.20;;;;;;4721163;30;20041;-81
2022/02/19 10:09:49;;;;;;;4.28;0.90;;;12.30;49.20;;;;;;4734200;30;20221;-80
2022/02/19 10:12:16;;;;;;;5.75;1.33;;;12.30;49.20;;;;;;4714869;30;20047;-80
2022/02/19 10:14:45;;;;;;;7.68;1.88;;;12.20;49.50;;;;;;4719055;30;20037;-81
2022/02/19 10:17:17;;;;;;;7.03;1.33;;;12.40;49.60;;;;;;4712176;30;20233;-80
2022/02/19 10:19:51;;;;;;;10.75;1.70;;;12.40;49.70;;;;;;4718859;30;20262;-80
2022/02/19 10:22:22;;;;;;;9.48;2.03;;;12.50;48.60;;;;;;4735957;30;20063;-80
2022/02/19 10:24:51;;;;;;;5.80;1.27;;;12.60;49.30;;;;;;4721333;30;20352;-80
2022/02/19 10:27:17;;;;;;;6.30;1.42;;;12.70;47.80;;;;;;4741321;30;20029;-80
2022/02/19 10:30:04;;;;;;;6.53;1.20;;;12.80;48.10;;;;;;4722107;30;20029;-80
2022/02/19 10:32:45;;;;;;;7.97;1.40;;;12.90;46.80;;;;;;4737082;30;20025;-80
2022/02/19 10:35:11;;;;;;;7.20;1.45;;;12.80;47.10;;;;;;4726110;30;20112;-80
2022/02/19 10:37:51;;;;;;;5.05;1.75;;;12.90;47.00;;;;;;4733695;30;20261;-80
2022/02/19 10:40:26;;;;;;;7.30;1.20;;;13.10;47.30;;;;;;4744607;30;20041;-80
2022/02/19 10:42:57;;;;;;;5.03;1.05;;;13.20;46.50;;;;;;4745178;30;20269;-80
2022/02/19 10:45:24;;;;;;;4.35;1.05;;;13.20;46.20;;;;;;4708233;30;20029;-82
2022/02/19 10:47:50;;;;;;;4.57;1.67;;;13.20;46.30;;;;;;4724350;30;20040;-81
2022/02/19 10:50:19;;;;;;;5.57;1.40;;;13.20;47.20;;;;;;4728057;30;20064;-80
2022/02/19 10:52:54;;;;;;;5.25;1.38;;;13.00;47.10;;;;;;4719049;30;20239;-80
2022/02/19 10:55:23;;;;;;;6.45;1.35;;;12.80;46.90;;;;;;4710189;30;20040;-80
2022/02/19 10:57:56;;;;;;;5.68;2.08;;;12.60;47.30;;;;;;4722852;30;20065;-80
2022/02/19 11:00:24;;;;;;;6.35;1.17;;;12.40;46.30;;;;;;4712293;30;20349;-81
2022/02/19 11:02:50;;;;;;;9.02;1.48;;;12.30;46.50;;;;;;4713613;30;20121;-80
2022/02/19 11:05:18;;;;;;;5.07;1.42;;;12.30;47.40;;;;;;4730830;30;20048;-79
2022/02/19 11:07:45;;;;;;;4.88;1.73;;;12.20;46.70;;;;;;4716694;30;20396;-79
2022/02/19 11:10:17;;;;;;;5.45;1.33;;;12.10;47.00;;;;;;4714407;30;20040;-81
2022/02/19 11:12:44;;;;;;;3.35;1.17;;;12.10;47.70;;;;;;4714624;30;20221;-80
2022/02/19 11:15:11;;;;;;;4.40;1.38;;;12.10;47.90;;;;;;4711679;30;20041;-80
2022/02/19 11:17:37;;;;;;;2.78;1.10;;;12.00;47.60;;;;;;4714734;30;20208;-80
2022/02/19 11:20:08;;;;;;;9.23;1.30;;;11.90;48.10;;;;;;4708503;30;20041;-80
2022/02/19 11:22:36;;;;;;;5.20;1.70;;;11.90;47.90;;;;;;4715086;30;20352;-80
2022/02/19 11:25:05;;;;;;;3.72;1.00;;;11.90;48.10;;;;;;4707228;30;20041;-81
2022/02/19 11:27:45;;;;;;;8.82;1.92;;;11.90;48.10;;;;;;4721921;30;20037;-80
2022/02/19 11:30:12;;;;;;;4.43;1.50;;;12.00;48.20;;;;;;4725024;30;20403;-80
2022/02/19 11:32:43;;;;;;;7.30;1.45;;;12.20;48.20;;;;;;4734375;30;20077;-80
2022/02/19 11:35:10;;;;;;;4.95;1.52;;;12.20;47.90;;;;;;4722639;30;20041;-80
2022/02/19 11:37:43;;;;;;;4.30;1.20;;;12.20;45.30;;;;;;4726704;30;20049;-81
2022/02/19 11:40:15;;;;;;;4.22;1.00;;;12.20;46.50;;;;;;4728100;30;20056;-80
2022/02/19 11:42:45;;;;;;;5.85;1.65;;;12.20;46.70;;;;;;4730198;30;20037;-81
2022/02/19 11:45:27;;;;;;;2.83;1.08;;;12.10;47.20;;;;;;4726399;30;20083;-81
2022/02/19 11:48:03;;;;;;;5.13;1.42;;;12.10;47.30;;;;;;4716282;30;20048;-81
2022/02/19 11:50:32;;;;;;;9.17;1.93;;;12.10;48.20;;;;;;4719303;30;20217;-81
2022/02/19 11:53:10;;;;;;;9.20;1.58;;;12.20;47.30;;;;;;4716190;30;20306;-81
2022/02/19 11:55:46;;;;;;;4.93;1.27;;;12.10;47.30;;;;;;4727307;30;20044;-81
2022/02/19 11:58:18;;;;;;;10.55;2.15;;;12.10;47.70;;;;;;4712721;30;20061;-81
2022/02/19 12:00:54;;;;;;;8.80;1.65;;;12.10;47.60;;;;;;4725900;30;20040;-81
2022/02/19 12:03:21;;;;;;;5.78;1.75;;;12.20;47.30;;;;;;4730772;30;20052;-81
2022/02/19 12:06:27;;;;;;;5.43;1.52;;;12.20;46.40;;;;;;4725202;30;20285;-81
2022/02/19 12:09:10;;;;;;;7.57;1.35;;;12.20;47.20;;;;;;4764446;30;20174;-81
2022/02/19 12:12:00;;;;;;;5.28;1.55;;;12.30;45.80;;;;;;4772420;30;20039;-80
2022/02/19 12:14:47;;;;;;;8.05;1.35;;;12.30;45.80;;;;;;4690113;30;20057;-81
2022/02/19 12:17:17;;;;;;;7.13;2.88;;;12.30;46.40;;;;;;4685463;30;20052;-80
2022/02/19 12:19:52;;;;;;;5.65;1.23;;;12.30;46.20;;;;;;4663721;30;20057;-79
2022/02/19 12:22:38;;;;;;;4.75;1.45;;;12.30;46.10;;;;;;4682732;30;20268;-79
2022/02/19 12:25:12;;;;;;;8.75;1.42;;;12.30;45.30;;;;;;4693391;30;20058;-80
2022/02/19 12:27:39;;;;;;;6.05;1.73;;;12.30;45.70;;;;;;4710365;30;20049;-80
2022/02/19 12:30:17;;;;;;;9.75;1.90;;;12.40;45.50;;;;;;4714062;30;20029;-80
2022/02/19 12:32:44;;;;;;;4.63;2.05;;;12.40;45.20;;;;;;4709951;30;20056;-79
2022/02/19 12:35:10;;;;;;;9.77;1.70;;;12.50;45.20;;;;;;4692315;30;20028;-79
2022/02/19 12:37:37;;;;;;;6.00;1.90;;;12.70;44.40;;;;;;4679599;30;20041;-79
2022/02/19 12:40:04;;;;;;;8.20;1.77;;;12.70;44.60;;;;;;4691642;30;20105;-80
2022/02/19 12:42:32;;;;;;;6.75;1.77;;;12.80;44.00;;;;;;4685695;30;20152;-80
2022/02/19 12:45:04;;;;;;;5.40;1.50;;;12.90;44.50;;;;;;4670428;30;20056;-80
2022/02/19 12:47:31;;;;;;;3.45;1.42;;;13.00;43.40;;;;;;4662293;30;20388;-80
2022/02/19 12:49:57;;;;;;;4.43;1.25;;;13.20;42.90;;;;;;4657064;30;20113;-80
2022/02/19 12:52:23;;;;;;;3.75;1.30;;;13.10;41.70;;;;;;4720798;30;20048;-80
2022/02/19 12:54:50;;;;;;;8.55;1.65;;;13.10;42.70;;;;;;4715230;30;20041;-82
2022/02/19 12:57:19;;;;;;;7.55;1.70;;;13.10;42.20;;;;;;4709292;30;20041;-80
2022/02/19 12:59:50;;;;;;;3.60;1.38;;;13.10;42.20;;;;;;4716742;30;20097;-79
2022/02/19 13:02:17;;;;;;;4.00;1.20;;;13.20;41.70;;;;;;4728156;30;20033;-80
2022/02/19 13:04:45;;;;;;;7.20;1.52;;;13.30;42.30;;;;;;4731622;30;20118;-80
2022/02/19 13:07:22;;;;;;;5.30;1.88;;;13.30;42.40;;;;;;4716987;30;20033;-79
2022/02/19 13:09:56;;;;;;;9.32;1.38;;;13.30;42.20;;;;;;4732743;30;20079;-79
2022/02/19 13:12:30;;;;;;;3.78;1.27;;;13.30;43.10;;;;;;4726036;30;20048;-80
2022/02/19 13:14:58;;;;;;;9.30;2.22;;;13.40;42.70;;;;;;4717969;30;20403;-80
2022/02/19 13:17:25;;;;;;;7.90;1.58;;;13.40;42.80;;;;;;4724447;30;20092;-80
2022/02/19 13:20:03;;;;;;;10.52;2.10;;;13.40;43.30;;;;;;4713471;30;20026;-80
2022/02/19 13:22:29;;;;;;;3.63;1.40;;;13.40;43.50;;;;;;4714193;30;20105;-80
2022/02/19 13:24:54;;;;;;;6.78;1.33;;;13.40;43.50;;;;;;4738583;30;20100;-80
2022/02/19 13:27:30;;;;;;;6.82;1.48;;;13.40;43.90;;;;;;4705894;30;20063;-80
2022/02/19 13:29:59;;;;;;;4.93;1.98;;;13.40;43.60;;;;;;4711815;30;20112;-81
2022/02/19 13:32:40;;;;;;;5.00;1.67;;;13.40;43.10;;;;;;4710767;30;20349;-82
2022/02/19 13:35:19;;;;;;;5.55;1.45;;;13.40;43.10;;;;;;4709978;30;20033;-81
2022/02/19 13:37:45;;;;;;;6.25;1.95;;;13.40;43.60;;;;;;4740443;30;20028;-80
2022/02/19 13:40:25;;;;;;;3.47;1.15;;;13.30;43.30;;;;;;4739475;30;20075;-81
2022/02/19 13:42:53;;;;;;;7.57;1.40;;;13.30;43.60;;;;;;4724105;30;20109;-80
2022/02/19 13:45:36;;;;;;;8.65;2.28;;;13.30;43.00;;;;;;4726767;30;20045;-80
2022/02/19 13:48:06;;;;;;;4.80;1.63;;;13.30;42.80;;;;;;4727628;30;20041;-80
2022/02/19 13:50:46;;;;;;;6.35;1.58;;;13.20;42.70;;;;;;4731711;30;20068;-81
2022/02/19 13:53:14;;;;;;;5.43;1.67;;;13.20;43.20;;;;;;4731269;30;20145;-80
2022/02/19 13:55:49;;;;;;;7.90;2.00;;;13.20;43.30;;;;;;4727484;30;20042;-81
2022/02/19 13:58:55;;;;;;;7.32;1.75;;;13.30;43.90;;;;;;4722242;30;20111;-81
2022/02/19 14:01:22;;;;;;;6.88;2.50;;;13.30;43.70;;;;;;4740936;30;20049;-81
2022/02/19 14:03:55;;;;;;;5.18;1.30;;;13.30;43.30;;;;;;4732188;30;20037;-81
2022/02/19 14:06:37;;;;;;;9.27;2.50;;;13.20;43.50;;;;;;4735054;30;20036;-81
2022/02/19 14:09:18;;;;;;;8.60;1.90;;;13.30;43.20;;;;;;4736339;30;20047;-81
2022/02/19 14:11:49;;;;;;;5.45;2.17;;;13.30;43.30;;;;;;4722642;30;20081;-82
2022/02/19 14:14:45;;;;;;;7.45;1.95;;;13.30;43.70;;;;;;4743785;30;20044;-81
2022/02/19 14:17:15;;;;;;;4.97;1.10;;;13.30;42.80;;;;;;4729638;30;20048;-81
2022/02/19 14:19:54;;;;;;;3.60;1.00;;;13.20;42.20;;;;;;4743890;30;20148;-80
2022/02/19 14:22:22;;;;;;;2.72;1.58;;;13.20;43.10;;;;;;4743409;30;20044;-80
2022/02/19 14:25:05;;;;;;;6.00;1.35;;;13.20;43.10;;;;;;4743265;30;20048;-82
2022/02/19 14:27:56;;;;;;;6.68;1.33;;;13.10;42.20;;;;;;4742709;30;20049;-81
2022/02/19 14:30:28;;;;;;;2.80;1.20;;;13.00;42.80;;;;;;4757379;30;20348;-81
2022/02/19 14:33:00;;;;;;;4.40;1.50;;;13.00;42.80;;;;;;4733080;30;20200;-82
2022/02/19 14:35:26;;;;;;;4.75;1.70;;;13.10;43.20;;;;;;4751371;30;20051;-81
2022/02/19 14:37:51;;;;;;;5.07;1.42;;;13.00;42.80;;;;;;4679359;30;20046;-81
2022/02/19 14:40:17;;;;;;;8.88;1.63;;;12.90;42.60;;;;;;4703131;30;20105;-82
2022/02/19 14:42:43;;;;;;;4.88;1.40;;;12.80;42.80;;;;;;4690411;30;20045;-82
2022/02/19 14:45:10;;;;;;;5.50;1.73;;;12.70;42.70;;;;;;4696381;30;20253;-82
2022/02/19 14:47:36;;;;;;;3.65;1.10;;;12.70;42.30;;;;;;4702916;30;20061;-82
2022/02/19 14:50:04;;;;;;;3.55;1.23;;;12.60;42.40;;;;;;4700851;30;20465;-81
2022/02/19 14:52:29;;;;;;;5.72;1.30;;;12.50;42.70;;;;;;4700605;30;20046;-82
2022/02/19 14:54:57;;;;;;;4.22;1.85;;;12.50;42.50;;;;;;4724531;30;20260;-81
2022/02/19 14:57:23;;;;;;;4.35;2.15;;;12.40;42.80;;;;;;4716991;30;20111;-81
2022/02/19 14:59:49;;;;;;;4.70;1.63;;;12.40;42.80;;;;;;4741798;30;20057;-82
2022/02/19 15:02:14;;;;;;;5.10;1.27;;;12.50;42.50;;;;;;4733767;30;20041;-81
2022/02/19 15:04:40;;;;;;;7.95;1.50;;;12.40;42.40;;;;;;4711130;30;20044;-82
2022/02/19 15:07:06;;;;;;;8.00;1.55;;;12.40;42.50;;;;;;4722968;30;20111;-81
2022/02/19 15:09:32;;;;;;;7.30;1.67;;;12.40;42.70;;;;;;4710049;30;20041;-82
2022/02/19 15:11:58;;;;;;;8.40;1.85;;;12.40;42.80;;;;;;4732293;30;20042;-82
2022/02/19 15:14:24;;;;;;;4.30;1.70;;;12.50;43.90;;;;;;4710894;30;20112;-82
2022/02/19 15:16:51;;;;;;;4.45;1.40;;;12.50;43.00;;;;;;4737861;30;20033;-82
2022/02/19 15:19:18;;;;;;;3.40;1.33;;;12.50;42.50;;;;;;4719131;30;20109;-81
2022/02/19 15:21:44;;;;;;;6.45;1.50;;;12.50;42.20;;;;;;4722648;30;20041;-82
2022/02/19 15:24:10;;;;;;;3.83;1.75;;;12.40;41.90;;;;;;4731924;30;20106;-81
2022/02/19 15:26:36;;;;;;;5.88;1.55;;;12.30;41.60;;;;;;4735616;30;20053;-81
2022/02/19 15:29:04;;;;;;;5.37;1.30;;;12.30;42.00;;;;;;4728563;30;20045;-81
2022/02/19 15:31:30;;;;;;;8.88;1.95;;;12.20;41.70;;;;;;4697017;30;20334;-82
2022/02/19 15:33:58;;;;;;;5.40;1.70;;;12.10;41.90;;;;;;4718093;30;20400;-81
2022/02/19 15:36:24;;;;;;;7.20;1.38;;;12.20;42.20;;;;;;4696080;30;20037;-82
2022/02/19 15:38:50;;;;;;;5.82;1.20;;;12.10;42.10;;;;;;4702236;30;20043;-82
2022/02/19 15:41:16;;;;;;;5.60;1.70;;;12.00;41.60;;;;;;4719609;30;20036;-81
2022/02/19 15:43:41;;;;;;;5.72;1.60;;;12.00;41.40;;;;;;4717083;30;20398;-82
2022/02/19 15:46:08;;;;;;;6.30;1.80;;;11.90;42.20;;;;;;4700765;30;20053;-82
2022/02/19 15:48:40;;;;;;;11.30;2.58;;;11.90;42.20;;;;;;4731357;30;20049;-82
2022/02/19 15:51:06;;;;;;;7.70;1.67;;;11.90;42.30;;;;;;4726682;30;20037;-82
2022/02/19 15:53:33;;;;;;;4.65;1.63;;;11.80;43.10;;;;;;4714283;30;20210;-82
2022/02/19 15:55:59;;;;;;;4.85;1.15;;;11.70;44.00;;;;;;4707589;30;20053;-82
2022/02/19 15:58:28;;;;;;;7.10;1.42;;;11.70;44.00;;;;;;4725725;30;20132;-82
2022/02/19 16:00:55;;;;;;;6.78;1.70;;;11.60;43.90;;;;;;4711761;30;20049;-81
2022/02/19 16:03:21;;;;;;;4.88;1.42;;;11.60;44.50;;;;;;4740612;30;20128;-82
2022/02/19 16:05:47;;;;;;;6.07;1.50;;;11.50;44.80;;;;;;4720198;30;20052;-82
2022/02/19 16:08:13;;;;;;;8.73;1.88;;;11.50;44.60;;;;;;4728944;30;20045;-82
2022/02/19 16:10:39;;;;;;;5.85;2.38;;;11.50;45.00;;;;;;4710964;30;20025;-82
2022/02/19 16:13:09;;;;;;;8.52;2.08;;;11.40;44.90;;;;;;4711586;30;20293;-81
2022/02/19 16:15:35;;;;;;;5.63;2.25;;;11.30;44.40;;;;;;4703092;30;20041;-82
2022/02/19 16:18:01;;;;;;;7.55;1.85;;;11.30;44.40;;;;;;4704967;30;20457;-82
2022/02/19 16:20:26;;;;;;;8.65;2.20;;;11.30;44.70;;;;;;4742709;30;20056;-82
2022/02/19 16:22:52;;;;;;;11.23;2.78;;;11.20;44.30;;;;;;4720841;30;20300;-81
2022/02/19 16:25:18;;;;;;;8.40;1.85;;;11.20;44.20;;;;;;4725765;30;20057;-81
2022/02/19 16:27:44;;;;;;;4.05;1.30;;;11.20;44.00;;;;;;4746305;30;20044;-82
2022/02/19 16:30:10;;;;;;;5.28;1.95;;;11.20;44.10;;;;;;4712733;30;20079;-82
2022/02/19 16:32:36;;;;;;;10.82;2.47;;;11.10;43.70;;;;;;4718516;30;20037;-82
2022/02/19 16:35:04;;;;;;;11.18;2.30;;;11.10;44.00;;;;;;4694692;30;20041;-81
2022/02/19 16:37:30;;;;;;;5.25;2.13;;;11.00;43.90;;;;;;4736053;30;20032;-82
2022/02/19 16:39:55;;;;;;;14.45;4.28;;;11.00;44.20;;;;;;4718151;30;20071;-81
2022/02/19 16:42:21;;;;;;;13.57;3.20;;;11.00;43.90;;;;;;4735367;30;20041;-82
2022/02/19 16:44:47;;;;;;;9.20;2.50;;;10.90;44.00;;;;;;4722860;30;20033;-81
2022/02/19 16:47:13;;;;;;;10.30;2.90;;;10.90;43.70;;;;;;4735021;30;20083;-80
2022/02/19 16:49:40;;;;;;;9.77;2.63;;;10.90;44.10;;;;;;4717452;30;20045;-82
2022/02/19 16:52:06;;;;;;;9.57;2.30;;;10.90;43.60;;;;;;4737858;30;20404;-80
2022/02/19 16:54:32;;;;;;;6.13;1.52;;;10.80;43.70;;;;;;4710414;30;20041;-80